sensor_id;sensor_type;location;lat;lon;timestamp;P1;durP1;ratioP1;P2;durP2;ratioP2
21110;SDS011;10713;51.912;4.494;2023-05-16T00:00:15;9.18;;;2.30;;
21110;SDS011;10713;51.912;4.494;2023-05-16T00:02:40;18.13;;;2.40;;
21110;SDS011;10713;51.912;4.494;2023-05-16T00:05:06;19.42;;;2.33;;
21110;SDS011;10713;51.912;4.494;2023-05-16T00:07:32;11.02;;;2.30;;
21110;SDS011;10713;51.912;4.494;2023-05-16T00:09:58;14.70;;;2.10;;
21110;SDS011;10713;51.912;4.494;2023-05-16T00:12:24;14.73;;;2.22;;
21110;SDS011;10713;51.912;4.494;2023-05-16T00:14:50;12.32;;;2.60;;
21110;SDS011;10713;51.912;4.494;2023-05-16T00:17:16;10.30;;;2.13;;
21110;SDS011;10713;51.912;4.494;2023-05-16T00:19:44;12.85;;;2.17;;
21110;SDS011;10713;51.912;4.494;2023-05-16T00:22:11;14.77;;;2.28;;
21110;SDS011;10713;51.912;4.494;2023-05-16T00:24:36;14.00;;;2.17;;
21110;SDS011;10713;51.912;4.494;2023-05-16T00:27:02;12.90;;;2.30;;
21110;SDS011;10713;51.912;4.494;2023-05-16T00:29:28;15.60;;;2.50;;
21110;SDS011;10713;51.912;4.494;2023-05-16T00:31:55;16.75;;;2.10;;
21110;SDS011;10713;51.912;4.494;2023-05-16T00:34:20;12.57;;;2.78;;
21110;SDS011;10713;51.912;4.494;2023-05-16T00:36:46;10.85;;;2.35;;
21110;SDS011;10713;51.912;4.494;2023-05-16T00:39:13;16.67;;;2.22;;
21110;SDS011;10713;51.912;4.494;2023-05-16T00:41:39;10.88;;;1.98;;
21110;SDS011;10713;51.912;4.494;2023-05-16T00:44:05;14.55;;;2.55;;
21110;SDS011;10713;51.912;4.494;2023-05-16T00:46:30;11.27;;;2.08;;
21110;SDS011;10713;51.912;4.494;2023-05-16T00:48:56;10.20;;;1.85;;
21110;SDS011;10713;51.912;4.494;2023-05-16T00:51:21;10.55;;;2.67;;
21110;SDS011;10713;51.912;4.494;2023-05-16T00:53:47;4.68;;;1.58;;
21110;SDS011;10713;51.912;4.494;2023-05-16T00:56:12;13.15;;;1.90;;
21110;SDS011;10713;51.912;4.494;2023-05-16T00:58:37;11.82;;;2.17;;
21110;SDS011;10713;51.912;4.494;2023-05-16T01:01:03;8.60;;;2.10;;
21110;SDS011;10713;51.912;4.494;2023-05-16T01:03:29;9.85;;;2.10;;
21110;SDS011;10713;51.912;4.494;2023-05-16T01:05:55;18.55;;;2.67;;
21110;SDS011;10713;51.912;4.494;2023-05-16T01:08:21;9.55;;;1.77;;
21110;SDS011;10713;51.912;4.494;2023-05-16T01:10:52;22.92;;;2.80;;
21110;SDS011;10713;51.912;4.494;2023-05-16T01:13:32;17.50;;;2.42;;
21110;SDS011;10713;51.912;4.494;2023-05-16T01:16:12;16.20;;;2.40;;
21110;SDS011;10713;51.912;4.494;2023-05-16T01:22:10;7.43;;;1.88;;
21110;SDS011;10713;51.912;4.494;2023-05-16T01:25:01;5.85;;;1.75;;
21110;SDS011;10713;51.912;4.494;2023-05-16T01:27:31;10.35;;;2.35;;
21110;SDS011;10713;51.912;4.494;2023-05-16T01:29:58;11.93;;;2.50;;
21110;SDS011;10713;51.912;4.494;2023-05-16T01:32:24;16.20;;;2.50;;
21110;SDS011;10713;51.912;4.494;2023-05-16T01:34:49;11.82;;;1.85;;
21110;SDS011;10713;51.912;4.494;2023-05-16T01:37:20;11.18;;;2.10;;
21110;SDS011;10713;51.912;4.494;2023-05-16T01:39:56;10.63;;;2.00;;
21110;SDS011;10713;51.912;4.494;2023-05-16T01:42:32;9.27;;;2.45;;
21110;SDS011;10713;51.912;4.494;2023-05-16T01:47:51;10.40;;;2.03;;
21110;SDS011;10713;51.912;4.494;2023-05-16T01:50:24;10.13;;;1.92;;
21110;SDS011;10713;51.912;4.494;2023-05-16T01:53:00;16.23;;;2.30;;
21110;SDS011;10713;51.912;4.494;2023-05-16T01:55:46;6.90;;;1.95;;
21110;SDS011;10713;51.912;4.494;2023-05-16T01:58:16;11.55;;;1.90;;
21110;SDS011;10713;51.912;4.494;2023-05-16T02:00:44;10.68;;;1.77;;
21110;SDS011;10713;51.912;4.494;2023-05-16T02:03:09;7.38;;;1.75;;
21110;SDS011;10713;51.912;4.494;2023-05-16T02:05:35;10.25;;;2.13;;
21110;SDS011;10713;51.912;4.494;2023-05-16T02:08:00;10.30;;;2.00;;
21110;SDS011;10713;51.912;4.494;2023-05-16T02:10:26;10.88;;;1.90;;
21110;SDS011;10713;51.912;4.494;2023-05-16T02:12:51;13.55;;;2.28;;
21110;SDS011;10713;51.912;4.494;2023-05-16T02:15:17;7.68;;;1.67;;
21110;SDS011;10713;51.912;4.494;2023-05-16T02:17:43;12.93;;;1.98;;
21110;SDS011;10713;51.912;4.494;2023-05-16T02:20:08;8.40;;;1.60;;
21110;SDS011;10713;51.912;4.494;2023-05-16T02:22:35;13.65;;;1.80;;
21110;SDS011;10713;51.912;4.494;2023-05-16T02:25:01;13.63;;;2.38;;
21110;SDS011;10713;51.912;4.494;2023-05-16T02:27:27;10.02;;;2.10;;
21110;SDS011;10713;51.912;4.494;2023-05-16T02:29:53;8.40;;;1.52;;
21110;SDS011;10713;51.912;4.494;2023-05-16T02:32:18;11.30;;;1.95;;
21110;SDS011;10713;51.912;4.494;2023-05-16T02:34:44;20.80;;;2.25;;
21110;SDS011;10713;51.912;4.494;2023-05-16T02:37:09;12.73;;;2.55;;
21110;SDS011;10713;51.912;4.494;2023-05-16T02:39:35;9.23;;;2.00;;
21110;SDS011;10713;51.912;4.494;2023-05-16T02:42:01;7.43;;;1.85;;
21110;SDS011;10713;51.912;4.494;2023-05-16T02:44:27;11.77;;;1.73;;
21110;SDS011;10713;51.912;4.494;2023-05-16T02:46:53;7.28;;;1.67;;
21110;SDS011;10713;51.912;4.494;2023-05-16T02:49:18;11.70;;;1.90;;
21110;SDS011;10713;51.912;4.494;2023-05-16T02:51:43;12.13;;;1.80;;
21110;SDS011;10713;51.912;4.494;2023-05-16T02:54:09;6.88;;;1.33;;
21110;SDS011;10713;51.912;4.494;2023-05-16T02:56:35;9.68;;;2.30;;
21110;SDS011;10713;51.912;4.494;2023-05-16T02:59:01;12.30;;;1.60;;
21110;SDS011;10713;51.912;4.494;2023-05-16T03:01:28;6.25;;;1.40;;
21110;SDS011;10713;51.912;4.494;2023-05-16T03:03:53;14.15;;;2.28;;
21110;SDS011;10713;51.912;4.494;2023-05-16T03:06:19;13.00;;;2.15;;
21110;SDS011;10713;51.912;4.494;2023-05-16T03:08:44;8.48;;;1.70;;
21110;SDS011;10713;51.912;4.494;2023-05-16T03:11:10;9.13;;;1.83;;
21110;SDS011;10713;51.912;4.494;2023-05-16T03:13:35;14.32;;;1.95;;
21110;SDS011;10713;51.912;4.494;2023-05-16T03:16:01;8.73;;;1.92;;
21110;SDS011;10713;51.912;4.494;2023-05-16T03:18:27;12.82;;;1.95;;
21110;SDS011;10713;51.912;4.494;2023-05-16T03:20:52;9.18;;;1.58;;
21110;SDS011;10713;51.912;4.494;2023-05-16T03:23:18;13.25;;;1.70;;
21110;SDS011;10713;51.912;4.494;2023-05-16T03:25:44;8.40;;;1.70;;
21110;SDS011;10713;51.912;4.494;2023-05-16T03:28:10;8.93;;;1.92;;
21110;SDS011;10713;51.912;4.494;2023-05-16T03:30:36;10.30;;;2.05;;
21110;SDS011;10713;51.912;4.494;2023-05-16T03:33:01;16.77;;;2.72;;
21110;SDS011;10713;51.912;4.494;2023-05-16T03:35:28;11.43;;;2.00;;
21110;SDS011;10713;51.912;4.494;2023-05-16T03:37:54;10.88;;;2.00;;
21110;SDS011;10713;51.912;4.494;2023-05-16T03:40:20;8.68;;;1.90;;
21110;SDS011;10713;51.912;4.494;2023-05-16T03:42:45;9.68;;;2.35;;
21110;SDS011;10713;51.912;4.494;2023-05-16T03:45:11;13.38;;;1.90;;
21110;SDS011;10713;51.912;4.494;2023-05-16T03:47:36;9.68;;;2.03;;
21110;SDS011;10713;51.912;4.494;2023-05-16T03:50:02;10.70;;;2.20;;
21110;SDS011;10713;51.912;4.494;2023-05-16T03:52:27;10.68;;;2.20;;
21110;SDS011;10713;51.912;4.494;2023-05-16T03:54:53;12.60;;;2.33;;
21110;SDS011;10713;51.912;4.494;2023-05-16T03:57:18;9.73;;;1.58;;
21110;SDS011;10713;51.912;4.494;2023-05-16T03:59:43;8.77;;;2.00;;
21110;SDS011;10713;51.912;4.494;2023-05-16T04:02:09;10.68;;;2.00;;
21110;SDS011;10713;51.912;4.494;2023-05-16T04:04:35;9.70;;;2.00;;
21110;SDS011;10713;51.912;4.494;2023-05-16T04:07:00;13.68;;;2.10;;
21110;SDS011;10713;51.912;4.494;2023-05-16T04:09:26;9.65;;;1.92;;
21110;SDS011;10713;51.912;4.494;2023-05-16T04:11:52;8.07;;;2.08;;
21110;SDS011;10713;51.912;4.494;2023-05-16T04:14:20;6.55;;;1.90;;
21110;SDS011;10713;51.912;4.494;2023-05-16T04:16:45;9.68;;;1.55;;
21110;SDS011;10713;51.912;4.494;2023-05-16T04:19:10;9.23;;;2.10;;
21110;SDS011;10713;51.912;4.494;2023-05-16T04:21:36;13.85;;;2.15;;
21110;SDS011;10713;51.912;4.494;2023-05-16T04:24:01;12.50;;;1.85;;
21110;SDS011;10713;51.912;4.494;2023-05-16T04:26:27;8.32;;;1.50;;
21110;SDS011;10713;51.912;4.494;2023-05-16T04:28:52;8.48;;;1.50;;
21110;SDS011;10713;51.912;4.494;2023-05-16T04:31:17;12.07;;;2.13;;
21110;SDS011;10713;51.912;4.494;2023-05-16T04:33:43;6.38;;;1.50;;
21110;SDS011;10713;51.912;4.494;2023-05-16T04:36:08;10.60;;;1.75;;
21110;SDS011;10713;51.912;4.494;2023-05-16T04:38:33;10.25;;;1.50;;
21110;SDS011;10713;51.912;4.494;2023-05-16T04:40:59;12.60;;;1.90;;
21110;SDS011;10713;51.912;4.494;2023-05-16T04:43:25;8.10;;;1.25;;
21110;SDS011;10713;51.912;4.494;2023-05-16T04:45:51;10.20;;;1.60;;
21110;SDS011;10713;51.912;4.494;2023-05-16T04:48:18;7.35;;;1.70;;
21110;SDS011;10713;51.912;4.494;2023-05-16T04:50:43;4.65;;;1.77;;
21110;SDS011;10713;51.912;4.494;2023-05-16T04:53:09;5.65;;;1.35;;
21110;SDS011;10713;51.912;4.494;2023-05-16T04:55:34;8.85;;;2.05;;
21110;SDS011;10713;51.912;4.494;2023-05-16T04:57:59;6.15;;;1.38;;
21110;SDS011;10713;51.912;4.494;2023-05-16T05:00:25;5.97;;;1.52;;
21110;SDS011;10713;51.912;4.494;2023-05-16T05:02:51;6.68;;;1.83;;
21110;SDS011;10713;51.912;4.494;2023-05-16T05:05:16;9.98;;;1.63;;
21110;SDS011;10713;51.912;4.494;2023-05-16T05:07:41;8.50;;;1.80;;
21110;SDS011;10713;51.912;4.494;2023-05-16T05:10:07;6.35;;;1.80;;
21110;SDS011;10713;51.912;4.494;2023-05-16T05:12:34;10.88;;;1.55;;
21110;SDS011;10713;51.912;4.494;2023-05-16T05:14:59;6.88;;;1.77;;
21110;SDS011;10713;51.912;4.494;2023-05-16T05:17:25;11.82;;;1.70;;
21110;SDS011;10713;51.912;4.494;2023-05-16T05:19:50;6.85;;;1.38;;
21110;SDS011;10713;51.912;4.494;2023-05-16T05:22:16;6.63;;;1.45;;
21110;SDS011;10713;51.912;4.494;2023-05-16T05:24:41;7.88;;;1.75;;
21110;SDS011;10713;51.912;4.494;2023-05-16T05:27:06;11.32;;;1.50;;
21110;SDS011;10713;51.912;4.494;2023-05-16T05:29:32;5.43;;;1.23;;
21110;SDS011;10713;51.912;4.494;2023-05-16T05:31:57;4.80;;;1.13;;
21110;SDS011;10713;51.912;4.494;2023-05-16T05:34:23;6.93;;;1.45;;
21110;SDS011;10713;51.912;4.494;2023-05-16T05:36:48;6.80;;;2.05;;
21110;SDS011;10713;51.912;4.494;2023-05-16T05:39:13;6.53;;;1.27;;
21110;SDS011;10713;51.912;4.494;2023-05-16T05:41:39;6.57;;;1.42;;
21110;SDS011;10713;51.912;4.494;2023-05-16T05:44:05;8.10;;;1.50;;
21110;SDS011;10713;51.912;4.494;2023-05-16T05:46:30;5.38;;;1.10;;
21110;SDS011;10713;51.912;4.494;2023-05-16T05:48:57;5.18;;;1.48;;
21110;SDS011;10713;51.912;4.494;2023-05-16T05:51:23;6.25;;;1.25;;
21110;SDS011;10713;51.912;4.494;2023-05-16T05:53:49;4.97;;;1.20;;
21110;SDS011;10713;51.912;4.494;2023-05-16T05:56:16;6.90;;;1.60;;
21110;SDS011;10713;51.912;4.494;2023-05-16T05:58:41;4.90;;;1.40;;
21110;SDS011;10713;51.912;4.494;2023-05-16T06:01:09;3.35;;;0.88;;
21110;SDS011;10713;51.912;4.494;2023-05-16T06:03:35;4.95;;;1.27;;
21110;SDS011;10713;51.912;4.494;2023-05-16T06:06:00;6.85;;;1.50;;
21110;SDS011;10713;51.912;4.494;2023-05-16T06:08:26;5.55;;;1.20;;
21110;SDS011;10713;51.912;4.494;2023-05-16T06:10:51;6.00;;;1.45;;
21110;SDS011;10713;51.912;4.494;2023-05-16T06:13:16;4.35;;;1.30;;
21110;SDS011;10713;51.912;4.494;2023-05-16T06:15:42;5.88;;;1.38;;
21110;SDS011;10713;51.912;4.494;2023-05-16T06:18:07;3.65;;;0.95;;
21110;SDS011;10713;51.912;4.494;2023-05-16T06:20:32;6.15;;;1.20;;
21110;SDS011;10713;51.912;4.494;2023-05-16T06:22:58;4.70;;;1.05;;
21110;SDS011;10713;51.912;4.494;2023-05-16T06:25:23;5.85;;;1.60;;
21110;SDS011;10713;51.912;4.494;2023-05-16T06:27:48;6.07;;;1.40;;
21110;SDS011;10713;51.912;4.494;2023-05-16T06:30:14;5.00;;;1.27;;
21110;SDS011;10713;51.912;4.494;2023-05-16T06:32:39;3.65;;;1.00;;
21110;SDS011;10713;51.912;4.494;2023-05-16T06:35:05;5.63;;;1.05;;
21110;SDS011;10713;51.912;4.494;2023-05-16T06:37:31;9.23;;;1.70;;
21110;SDS011;10713;51.912;4.494;2023-05-16T06:39:56;6.47;;;1.17;;
21110;SDS011;10713;51.912;4.494;2023-05-16T06:42:23;5.45;;;1.35;;
21110;SDS011;10713;51.912;4.494;2023-05-16T06:44:48;3.95;;;1.23;;
21110;SDS011;10713;51.912;4.494;2023-05-16T06:47:14;9.27;;;1.50;;
21110;SDS011;10713;51.912;4.494;2023-05-16T06:49:40;7.28;;;1.50;;
21110;SDS011;10713;51.912;4.494;2023-05-16T06:52:05;5.43;;;1.23;;
21110;SDS011;10713;51.912;4.494;2023-05-16T06:54:30;9.85;;;1.45;;
21110;SDS011;10713;51.912;4.494;2023-05-16T06:56:56;2.90;;;0.93;;
21110;SDS011;10713;51.912;4.494;2023-05-16T06:59:21;8.20;;;1.38;;
21110;SDS011;10713;51.912;4.494;2023-05-16T07:01:47;7.35;;;1.30;;
21110;SDS011;10713;51.912;4.494;2023-05-16T07:04:12;3.45;;;1.00;;
21110;SDS011;10713;51.912;4.494;2023-05-16T07:06:38;4.40;;;0.93;;
21110;SDS011;10713;51.912;4.494;2023-05-16T07:09:03;8.52;;;1.40;;
21110;SDS011;10713;51.912;4.494;2023-05-16T07:11:29;5.53;;;1.15;;
21110;SDS011;10713;51.912;4.494;2023-05-16T07:13:54;2.47;;;0.82;;
21110;SDS011;10713;51.912;4.494;2023-05-16T07:16:19;5.20;;;1.10;;
21110;SDS011;10713;51.912;4.494;2023-05-16T07:18:45;4.03;;;1.10;;
21110;SDS011;10713;51.912;4.494;2023-05-16T07:21:10;10.18;;;1.10;;
21110;SDS011;10713;51.912;4.494;2023-05-16T07:23:36;3.75;;;1.20;;
21110;SDS011;10713;51.912;4.494;2023-05-16T07:26:01;6.88;;;1.20;;
21110;SDS011;10713;51.912;4.494;2023-05-16T07:28:27;4.63;;;1.20;;
21110;SDS011;10713;51.912;4.494;2023-05-16T07:30:52;5.63;;;1.30;;
21110;SDS011;10713;51.912;4.494;2023-05-16T07:33:18;6.38;;;1.58;;
21110;SDS011;10713;51.912;4.494;2023-05-16T07:35:44;6.07;;;1.20;;
21110;SDS011;10713;51.912;4.494;2023-05-16T07:38:09;9.25;;;1.77;;
21110;SDS011;10713;51.912;4.494;2023-05-16T07:40:35;11.10;;;1.85;;
21110;SDS011;10713;51.912;4.494;2023-05-16T07:43:01;5.90;;;1.30;;
21110;SDS011;10713;51.912;4.494;2023-05-16T07:45:26;2.83;;;0.90;;
21110;SDS011;10713;51.912;4.494;2023-05-16T07:47:52;3.72;;;1.00;;
21110;SDS011;10713;51.912;4.494;2023-05-16T07:50:18;6.90;;;1.38;;
21110;SDS011;10713;51.912;4.494;2023-05-16T07:52:44;3.35;;;0.98;;
21110;SDS011;10713;51.912;4.494;2023-05-16T07:55:09;7.60;;;1.30;;
21110;SDS011;10713;51.912;4.494;2023-05-16T07:57:35;3.80;;;0.80;;
21110;SDS011;10713;51.912;4.494;2023-05-16T08:00:00;5.28;;;1.35;;
21110;SDS011;10713;51.912;4.494;2023-05-16T08:02:26;5.25;;;1.05;;
21110;SDS011;10713;51.912;4.494;2023-05-16T08:04:54;5.03;;;1.33;;
21110;SDS011;10713;51.912;4.494;2023-05-16T08:07:21;5.90;;;1.10;;
21110;SDS011;10713;51.912;4.494;2023-05-16T08:09:47;4.65;;;0.85;;
21110;SDS011;10713;51.912;4.494;2023-05-16T08:12:12;6.15;;;1.17;;
21110;SDS011;10713;51.912;4.494;2023-05-16T08:14:37;5.55;;;1.13;;
21110;SDS011;10713;51.912;4.494;2023-05-16T08:17:03;3.60;;;0.82;;
21110;SDS011;10713;51.912;4.494;2023-05-16T08:19:28;5.13;;;1.50;;
21110;SDS011;10713;51.912;4.494;2023-05-16T08:21:54;3.50;;;0.90;;
21110;SDS011;10713;51.912;4.494;2023-05-16T08:24:20;4.82;;;1.10;;
21110;SDS011;10713;51.912;4.494;2023-05-16T08:26:45;4.53;;;1.00;;
21110;SDS011;10713;51.912;4.494;2023-05-16T08:29:11;5.72;;;1.02;;
21110;SDS011;10713;51.912;4.494;2023-05-16T08:31:36;5.13;;;1.10;;
21110;SDS011;10713;51.912;4.494;2023-05-16T08:34:01;3.83;;;1.20;;
21110;SDS011;10713;51.912;4.494;2023-05-16T08:36:30;3.20;;;0.77;;
21110;SDS011;10713;51.912;4.494;2023-05-16T08:38:55;11.00;;;1.73;;
21110;SDS011;10713;51.912;4.494;2023-05-16T08:41:20;4.28;;;1.00;;
21110;SDS011;10713;51.912;4.494;2023-05-16T08:43:46;5.20;;;1.10;;
21110;SDS011;10713;51.912;4.494;2023-05-16T08:46:11;3.97;;;0.80;;
21110;SDS011;10713;51.912;4.494;2023-05-16T08:48:37;5.78;;;0.95;;
21110;SDS011;10713;51.912;4.494;2023-05-16T08:51:05;5.68;;;1.13;;
21110;SDS011;10713;51.912;4.494;2023-05-16T08:53:36;6.13;;;1.13;;
21110;SDS011;10713;51.912;4.494;2023-05-16T08:56:05;6.72;;;1.20;;
21110;SDS011;10713;51.912;4.494;2023-05-16T08:58:32;2.03;;;1.00;;
21110;SDS011;10713;51.912;4.494;2023-05-16T09:00:58;6.00;;;1.30;;
21110;SDS011;10713;51.912;4.494;2023-05-16T09:03:23;6.35;;;1.15;;
21110;SDS011;10713;51.912;4.494;2023-05-16T09:05:49;4.15;;;1.00;;
21110;SDS011;10713;51.912;4.494;2023-05-16T09:08:14;3.40;;;0.95;;
21110;SDS011;10713;51.912;4.494;2023-05-16T09:10:40;6.65;;;1.20;;
21110;SDS011;10713;51.912;4.494;2023-05-16T09:13:05;4.90;;;1.42;;
21110;SDS011;10713;51.912;4.494;2023-05-16T09:15:31;5.80;;;1.00;;
21110;SDS011;10713;51.912;4.494;2023-05-16T09:17:59;5.57;;;1.20;;
21110;SDS011;10713;51.912;4.494;2023-05-16T09:20:25;5.60;;;1.42;;
21110;SDS011;10713;51.912;4.494;2023-05-16T09:22:54;3.92;;;1.00;;
21110;SDS011;10713;51.912;4.494;2023-05-16T09:25:22;4.55;;;1.15;;
21110;SDS011;10713;51.912;4.494;2023-05-16T09:27:58;4.05;;;1.20;;
21110;SDS011;10713;51.912;4.494;2023-05-16T09:30:29;3.63;;;1.00;;
21110;SDS011;10713;51.912;4.494;2023-05-16T09:32:56;3.55;;;1.13;;
21110;SDS011;10713;51.912;4.494;2023-05-16T09:35:22;5.90;;;1.05;;
21110;SDS011;10713;51.912;4.494;2023-05-16T09:37:48;4.50;;;0.95;;
21110;SDS011;10713;51.912;4.494;2023-05-16T09:40:15;6.07;;;1.35;;
21110;SDS011;10713;51.912;4.494;2023-05-16T09:42:45;3.85;;;1.05;;
21110;SDS011;10713;51.912;4.494;2023-05-16T09:45:11;3.33;;;1.10;;
21110;SDS011;10713;51.912;4.494;2023-05-16T09:47:38;3.30;;;0.80;;
21110;SDS011;10713;51.912;4.494;2023-05-16T09:50:10;4.25;;;1.10;;
21110;SDS011;10713;51.912;4.494;2023-05-16T09:52:37;4.63;;;1.02;;
21110;SDS011;10713;51.912;4.494;2023-05-16T09:55:05;4.90;;;1.15;;
21110;SDS011;10713;51.912;4.494;2023-05-16T09:57:31;4.57;;;1.10;;
21110;SDS011;10713;51.912;4.494;2023-05-16T09:59:58;3.35;;;0.93;;
21110;SDS011;10713;51.912;4.494;2023-05-16T10:02:25;6.03;;;1.30;;
21110;SDS011;10713;51.912;4.494;2023-05-16T10:04:51;5.53;;;0.98;;
21110;SDS011;10713;51.912;4.494;2023-05-16T10:07:16;2.83;;;0.80;;
21110;SDS011;10713;51.912;4.494;2023-05-16T10:09:42;2.33;;;0.82;;
21110;SDS011;10713;51.912;4.494;2023-05-16T10:12:09;4.13;;;1.00;;
21110;SDS011;10713;51.912;4.494;2023-05-16T10:14:37;3.13;;;1.02;;
21110;SDS011;10713;51.912;4.494;2023-05-16T10:17:03;7.03;;;1.05;;
21110;SDS011;10713;51.912;4.494;2023-05-16T10:19:31;4.25;;;1.02;;
21110;SDS011;10713;51.912;4.494;2023-05-16T10:22:03;4.85;;;1.10;;
21110;SDS011;10713;51.912;4.494;2023-05-16T10:24:41;6.43;;;1.17;;
21110;SDS011;10713;51.912;4.494;2023-05-16T10:27:13;2.70;;;0.88;;
21110;SDS011;10713;51.912;4.494;2023-05-16T10:29:39;3.30;;;1.00;;
21110;SDS011;10713;51.912;4.494;2023-05-16T10:32:06;7.95;;;1.30;;
21110;SDS011;10713;51.912;4.494;2023-05-16T10:34:32;4.72;;;1.23;;
21110;SDS011;10713;51.912;4.494;2023-05-16T10:36:58;5.85;;;1.25;;
21110;SDS011;10713;51.912;4.494;2023-05-16T10:39:24;5.68;;;1.10;;
21110;SDS011;10713;51.912;4.494;2023-05-16T10:41:51;3.55;;;0.95;;
21110;SDS011;10713;51.912;4.494;2023-05-16T10:44:17;3.58;;;0.88;;
21110;SDS011;10713;51.912;4.494;2023-05-16T10:46:42;3.40;;;1.00;;
21110;SDS011;10713;51.912;4.494;2023-05-16T10:49:26;6.85;;;1.23;;
21110;SDS011;10713;51.912;4.494;2023-05-16T10:52:06;2.95;;;1.00;;
21110;SDS011;10713;51.912;4.494;2023-05-16T10:54:34;4.60;;;1.00;;
21110;SDS011;10713;51.912;4.494;2023-05-16T10:57:03;6.55;;;1.00;;
21110;SDS011;10713;51.912;4.494;2023-05-16T10:59:31;4.72;;;1.02;;
21110;SDS011;10713;51.912;4.494;2023-05-16T11:02:05;5.05;;;0.90;;
21110;SDS011;10713;51.912;4.494;2023-05-16T11:04:48;5.95;;;1.23;;
21110;SDS011;10713;51.912;4.494;2023-05-16T11:07:19;3.53;;;0.77;;
21110;SDS011;10713;51.912;4.494;2023-05-16T11:09:52;5.28;;;1.08;;
21110;SDS011;10713;51.912;4.494;2023-05-16T11:12:35;5.40;;;0.90;;
21110;SDS011;10713;51.912;4.494;2023-05-16T11:15:01;4.90;;;1.00;;
21110;SDS011;10713;51.912;4.494;2023-05-16T11:18:13;3.45;;;0.98;;
21110;SDS011;10713;51.912;4.494;2023-05-16T11:20:40;4.53;;;1.05;;
21110;SDS011;10713;51.912;4.494;2023-05-16T11:28:18;4.40;;;1.00;;
21110;SDS011;10713;51.912;4.494;2023-05-16T11:30:49;1.75;;;0.63;;
21110;SDS011;10713;51.912;4.494;2023-05-16T11:33:20;2.08;;;0.90;;
21110;SDS011;10713;51.912;4.494;2023-05-16T11:36:07;5.15;;;0.95;;
21110;SDS011;10713;51.912;4.494;2023-05-16T11:38:32;4.18;;;1.05;;
21110;SDS011;10713;51.912;4.494;2023-05-16T11:41:05;3.75;;;0.90;;
21110;SDS011;10713;51.912;4.494;2023-05-16T11:46:04;5.03;;;1.38;;
21110;SDS011;10713;51.912;4.494;2023-05-16T11:48:29;3.33;;;0.98;;
21110;SDS011;10713;51.912;4.494;2023-05-16T11:50:55;5.82;;;1.10;;
21110;SDS011;10713;51.912;4.494;2023-05-16T11:53:20;3.85;;;1.20;;
21110;SDS011;10713;51.912;4.494;2023-05-16T11:55:46;5.25;;;0.95;;
21110;SDS011;10713;51.912;4.494;2023-05-16T11:58:16;6.35;;;1.35;;
21110;SDS011;10713;51.912;4.494;2023-05-16T12:00:48;3.08;;;0.77;;
21110;SDS011;10713;51.912;4.494;2023-05-16T12:03:16;3.65;;;1.10;;
21110;SDS011;10713;51.912;4.494;2023-05-16T12:05:52;3.83;;;1.10;;
21110;SDS011;10713;51.912;4.494;2023-05-16T12:08:21;4.85;;;0.80;;
21110;SDS011;10713;51.912;4.494;2023-05-16T12:10:48;6.05;;;1.25;;
21110;SDS011;10713;51.912;4.494;2023-05-16T12:13:14;3.80;;;1.02;;
21110;SDS011;10713;51.912;4.494;2023-05-16T12:15:40;6.22;;;1.00;;
21110;SDS011;10713;51.912;4.494;2023-05-16T12:18:06;4.32;;;0.75;;
21110;SDS011;10713;51.912;4.494;2023-05-16T12:20:33;3.45;;;1.00;;
21110;SDS011;10713;51.912;4.494;2023-05-16T12:22:58;3.60;;;0.80;;
21110;SDS011;10713;51.912;4.494;2023-05-16T12:25:28;3.70;;;1.02;;
21110;SDS011;10713;51.912;4.494;2023-05-16T12:27:59;3.80;;;1.00;;
21110;SDS011;10713;51.912;4.494;2023-05-16T12:30:26;5.95;;;1.10;;
21110;SDS011;10713;51.912;4.494;2023-05-16T12:32:59;2.30;;;0.73;;
21110;SDS011;10713;51.912;4.494;2023-05-16T12:35:30;4.60;;;1.00;;
21110;SDS011;10713;51.912;4.494;2023-05-16T12:37:57;6.03;;;1.08;;
21110;SDS011;10713;51.912;4.494;2023-05-16T12:40:23;5.63;;;1.20;;
21110;SDS011;10713;51.912;4.494;2023-05-16T12:42:52;5.15;;;1.13;;
21110;SDS011;10713;51.912;4.494;2023-05-16T12:45:18;4.07;;;1.15;;
21110;SDS011;10713;51.912;4.494;2023-05-16T12:47:44;5.93;;;0.93;;
21110;SDS011;10713;51.912;4.494;2023-05-16T12:50:11;6.15;;;1.10;;
21110;SDS011;10713;51.912;4.494;2023-05-16T12:52:59;7.32;;;1.38;;
21110;SDS011;10713;51.912;4.494;2023-05-16T12:55:24;4.72;;;0.95;;
21110;SDS011;10713;51.912;4.494;2023-05-16T12:57:51;6.10;;;1.33;;
21110;SDS011;10713;51.912;4.494;2023-05-16T13:00:19;5.47;;;1.20;;
21110;SDS011;10713;51.912;4.494;2023-05-16T13:02:45;6.70;;;0.90;;
21110;SDS011;10713;51.912;4.494;2023-05-16T13:05:12;4.43;;;1.02;;
21110;SDS011;10713;51.912;4.494;2023-05-16T13:07:37;6.55;;;1.00;;
21110;SDS011;10713;51.912;4.494;2023-05-16T13:10:05;6.00;;;1.05;;
21110;SDS011;10713;51.912;4.494;2023-05-16T13:12:33;10.52;;;1.02;;
21110;SDS011;10713;51.912;4.494;2023-05-16T13:14:59;4.75;;;0.90;;
21110;SDS011;10713;51.912;4.494;2023-05-16T13:17:24;4.35;;;0.90;;
21110;SDS011;10713;51.912;4.494;2023-05-16T13:19:50;7.93;;;0.93;;
21110;SDS011;10713;51.912;4.494;2023-05-16T13:22:16;7.68;;;1.30;;
21110;SDS011;10713;51.912;4.494;2023-05-16T13:24:41;9.15;;;1.00;;
21110;SDS011;10713;51.912;4.494;2023-05-16T13:27:06;4.68;;;1.00;;
21110;SDS011;10713;51.912;4.494;2023-05-16T13:29:32;3.55;;;0.88;;
21110;SDS011;10713;51.912;4.494;2023-05-16T13:31:57;2.75;;;0.82;;
21110;SDS011;10713;51.912;4.494;2023-05-16T13:34:22;4.63;;;1.52;;
21110;SDS011;10713;51.912;4.494;2023-05-16T13:36:48;4.88;;;1.80;;
21110;SDS011;10713;51.912;4.494;2023-05-16T13:39:13;5.05;;;1.10;;
21110;SDS011;10713;51.912;4.494;2023-05-16T13:41:39;5.45;;;1.25;;
21110;SDS011;10713;51.912;4.494;2023-05-16T13:44:06;10.70;;;1.25;;
21110;SDS011;10713;51.912;4.494;2023-05-16T13:46:31;5.38;;;1.20;;
21110;SDS011;10713;51.912;4.494;2023-05-16T13:48:57;4.50;;;1.02;;
21110;SDS011;10713;51.912;4.494;2023-05-16T13:51:22;4.85;;;1.38;;
21110;SDS011;10713;51.912;4.494;2023-05-16T13:53:47;6.20;;;1.02;;
21110;SDS011;10713;51.912;4.494;2023-05-16T13:56:13;5.22;;;1.20;;
21110;SDS011;10713;51.912;4.494;2023-05-16T13:58:38;4.97;;;1.35;;
21110;SDS011;10713;51.912;4.494;2023-05-16T14:01:03;4.47;;;0.88;;
21110;SDS011;10713;51.912;4.494;2023-05-16T14:03:29;6.85;;;1.15;;
21110;SDS011;10713;51.912;4.494;2023-05-16T14:05:54;4.03;;;1.13;;
21110;SDS011;10713;51.912;4.494;2023-05-16T14:08:20;3.53;;;1.10;;
21110;SDS011;10713;51.912;4.494;2023-05-16T14:10:45;2.78;;;0.90;;
21110;SDS011;10713;51.912;4.494;2023-05-16T14:13:11;3.63;;;1.02;;
21110;SDS011;10713;51.912;4.494;2023-05-16T14:15:36;4.47;;;1.00;;
21110;SDS011;10713;51.912;4.494;2023-05-16T14:18:01;7.40;;;1.08;;
21110;SDS011;10713;51.912;4.494;2023-05-16T14:20:28;5.65;;;0.95;;
21110;SDS011;10713;51.912;4.494;2023-05-16T14:22:53;3.35;;;1.08;;
21110;SDS011;10713;51.912;4.494;2023-05-16T14:25:19;14.60;;;1.60;;
21110;SDS011;10713;51.912;4.494;2023-05-16T14:27:44;7.47;;;1.75;;
21110;SDS011;10713;51.912;4.494;2023-05-16T14:30:10;7.25;;;1.10;;
21110;SDS011;10713;51.912;4.494;2023-05-16T14:32:35;2.97;;;0.93;;
21110;SDS011;10713;51.912;4.494;2023-05-16T14:35:01;5.18;;;1.27;;
21110;SDS011;10713;51.912;4.494;2023-05-16T14:37:29;5.07;;;1.08;;
21110;SDS011;10713;51.912;4.494;2023-05-16T14:39:54;6.68;;;0.85;;
21110;SDS011;10713;51.912;4.494;2023-05-16T14:42:21;2.92;;;1.02;;
21110;SDS011;10713;51.912;4.494;2023-05-16T14:44:46;4.32;;;0.90;;
21110;SDS011;10713;51.912;4.494;2023-05-16T14:47:11;4.78;;;1.08;;
21110;SDS011;10713;51.912;4.494;2023-05-16T14:49:37;4.20;;;1.10;;
21110;SDS011;10713;51.912;4.494;2023-05-16T14:52:03;1.55;;;0.55;;
21110;SDS011;10713;51.912;4.494;2023-05-16T14:54:28;5.65;;;1.00;;
21110;SDS011;10713;51.912;4.494;2023-05-16T14:56:53;2.78;;;0.90;;